Time;durP1;ratioP1;P1;durP2;ratioP2;P2;SDS_P1;SDS_P2;PMS_P1;PMS_P2;Temp;Humidity;BMP_temperature;BMP_pressure;BME280_temperature;BME280_humidity;BME280_pressure;Samples;Min_cycle;Max_cycle;Signal;HPM_P1;HPM_P2
2024/01/23 00:01:46;;;;;;;12.10;3.50;;;;;;;4.33;85.11;100382.30;105018;1255;61262;-64
2024/01/23 00:04:13;;;;;;;12.20;3.90;;;;;;;4.30;85.15;100385.81;104975;1259;138988;-63
2024/01/23 00:06:40;;;;;;;15.70;5.40;;;;;;;4.29;85.11;100391.34;105034;1258;74799;-63
2024/01/23 00:09:06;;;;;;;43.50;19.20;;;;;;;4.27;85.22;100398.70;105030;1254;65377;-64
2024/01/23 00:11:33;;;;;;;57.70;24.60;;;;;;;4.22;85.00;100397.80;104946;1258;138703;-64
2024/01/23 00:14:00;;;;;;;41.50;17.70;;;;;;;4.20;85.07;100400.63;104968;1255;61275;-64
2024/01/23 00:16:26;;;;;;;64.50;27.60;;;;;;;4.17;85.17;100397.40;104933;1261;138793;-64
2024/01/23 00:18:53;;;;;;;77.30;33.30;;;;;;;4.14;85.07;100399.50;105054;1254;72674;-64
2024/01/23 00:21:20;;;;;;;50.60;24.30;;;;;;;4.11;85.14;100409.45;105029;1259;67442;-64
2024/01/23 00:23:47;;;;;;;63.60;29.70;;;;;;;4.08;85.08;100414.86;104988;1260;139051;-64
2024/01/23 00:26:13;;;;;;;53.50;24.50;;;;;;;4.05;85.14;100413.84;104940;1260;61353;-65
2024/01/23 00:28:40;;;;;;;58.80;26.90;;;;;;;4.00;85.07;100407.21;104927;1260;138994;-64
2024/01/23 00:31:07;;;;;;;56.40;26.20;;;;;;;3.96;85.12;100419.34;104752;1261;75156;-64
2024/01/23 00:33:34;;;;;;;50.20;26.20;;;;;;;3.91;85.01;100423.62;105769;1260;65136;-65
2024/01/23 00:36:01;;;;;;;51.80;26.00;;;;;;;3.89;85.15;100429.80;105008;1259;139277;-63
2024/01/23 00:38:27;;;;;;;66.00;33.50;;;;;;;3.86;85.12;100427.05;104965;1255;61451;-63
2024/01/23 00:40:54;;;;;;;37.90;17.40;;;;;;;3.82;85.11;100423.56;104972;1261;138670;-63
2024/01/23 00:43:21;;;;;;;31.00;14.60;;;;;;;3.78;85.12;100416.27;104927;1254;75762;-63
2024/01/23 00:45:48;;;;;;;30.10;12.30;;;;;;;3.75;85.12;100418.55;105025;1260;67119;-64
2024/01/23 00:48:14;;;;;;;26.20;11.50;;;;;;;3.73;85.05;100425.54;104892;1260;138954;-65
2024/01/23 00:50:41;;;;;;;41.50;19.50;;;;;;;3.70;85.35;100428.73;104966;1261;61368;-64
2024/01/23 00:53:08;;;;;;;46.10;21.40;;;;;;;3.69;85.28;100430.95;105070;1254;138705;-64
2024/01/23 00:55:34;;;;;;;29.50;13.20;;;;;;;3.66;85.16;100425.75;105187;1254;75605;-65
2024/01/23 00:58:01;;;;;;;31.80;13.80;;;;;;;3.63;85.27;100430.48;105061;1255;64576;-65
2024/01/23 01:00:29;;;;;;;41.10;18.80;;;;;;;3.59;85.20;100440.50;104989;1254;138703;-65
2024/01/23 01:02:56;;;;;;;26.40;10.50;;;;;;;3.57;85.29;100441.44;105006;1261;61497;-64
2024/01/23 01:05:23;;;;;;;27.00;11.20;;;;;;;3.56;85.35;100443.86;105156;1259;139029;-65
2024/01/23 01:07:50;;;;;;;27.30;10.20;;;;;;;3.55;85.29;100443.09;105318;1257;75269;-64
2024/01/23 01:10:17;;;;;;;38.50;15.20;;;;;;;3.53;85.38;100441.11;105011;1254;138643;-65
2024/01/23 01:12:43;;;;;;;29.70;10.80;;;;;;;3.57;85.59;100441.96;105080;1254;74287;-64
2024/01/23 01:15:10;;;;;;;48.60;17.80;;;;;;;3.60;85.59;100441.80;104974;1258;60360;-64
2024/01/23 01:17:37;;;;;;;42.60;13.90;;;;;;;3.61;85.57;100443.59;104901;1259;139602;-64
2024/01/23 01:20:05;;;;;;;39.50;12.80;;;;;;;3.60;85.47;100440.75;105076;1256;74792;-64
2024/01/23 01:22:31;;;;;;;29.60;10.80;;;;;;;3.61;85.56;100435.40;104890;1258;138696;-60
2024/01/23 01:24:58;;;;;;;39.30;13.60;;;;;;;3.59;85.46;100440.88;105026;1255;73661;-58
2024/01/23 01:27:25;;;;;;;42.10;13.50;;;;;;;3.57;85.42;100449.29;104982;1261;61378;-59
2024/01/23 01:29:51;;;;;;;75.10;25.90;;;;;;;3.55;85.39;100451.59;105047;1254;138665;-60
2024/01/23 01:32:18;;;;;;;38.30;12.40;;;;;;;3.52;85.40;100444.35;105026;1254;74266;-58
2024/01/23 01:34:45;;;;;;;48.30;16.80;;;;;;;3.49;85.40;100438.48;104972;1260;140932;-58
2024/01/23 01:37:12;;;;;;;41.30;13.80;;;;;;;3.49;85.40;100444.73;104994;1260;70687;-59
2024/01/23 01:39:38;;;;;;;43.50;16.50;;;;;;;3.49;85.58;100443.52;105036;1259;61267;-59
2024/01/23 01:42:05;;;;;;;50.00;15.00;;;;;;;3.47;85.56;100446.75;104852;1259;138398;-59
2024/01/23 01:44:33;;;;;;;50.60;17.20;;;;;;;3.48;85.81;100453.02;104856;1256;74160;-59
2024/01/23 01:46:59;;;;;;;31.90;11.10;;;;;;;3.53;85.80;100464.85;108777;1256;138475;-59
2024/01/23 01:49:26;;;;;;;47.90;15.90;;;;;;;3.58;86.01;100465.27;108811;1256;75089;-60
2024/01/23 01:51:53;;;;;;;40.80;13.10;;;;;;;3.62;85.97;100460.80;108927;1256;58981;-60
2024/01/23 01:54:19;;;;;;;40.70;14.50;;;;;;;3.68;86.02;100458.81;108899;1257;138439;-59
2024/01/23 01:56:46;;;;;;;33.40;10.90;;;;;;;3.75;86.15;100462.30;105804;1257;74696;-64
2024/01/23 01:59:13;;;;;;;42.20;14.50;;;;;;;3.85;86.18;100460.70;105223;1256;138625;-64
2024/01/23 02:01:40;;;;;;;34.10;10.50;;;;;;;3.92;86.15;100455.61;104982;1260;72706;-65
2024/01/23 02:04:06;;;;;;;31.10;10.80;;;;;;;3.95;86.12;100461.67;104943;1257;61241;-64
2024/01/23 02:06:35;;;;;;;33.40;10.30;;;;;;;4.07;86.33;100464.13;104966;1256;138382;-64
2024/01/23 02:09:02;;;;;;;46.10;15.70;;;;;;;4.21;86.41;100466.86;105157;1259;73810;-64
2024/01/23 02:11:29;;;;;;;37.80;13.30;;;;;;;4.34;86.48;100462.92;105026;1259;138947;-64
2024/01/23 02:13:56;;;;;;;27.90;9.90;;;;;;;4.40;86.05;100465.80;104850;1254;73661;-64
2024/01/23 02:16:23;;;;;;;26.50;8.00;;;;;;;4.38;85.69;100463.10;104715;1260;138653;-64
2024/01/23 02:18:49;;;;;;;26.10;6.90;;;;;;;4.32;85.45;100461.98;104984;1259;61279;-64
2024/01/23 02:21:16;;;;;;;25.50;8.30;;;;;;;4.26;85.35;100467.59;105119;1255;75123;-64
2024/01/23 02:23:43;;;;;;;32.40;9.80;;;;;;;4.20;85.22;100456.20;104799;1257;139081;-64
2024/01/23 02:26:13;;;;;;;23.80;8.70;;;;;;;4.13;85.23;100459.04;105090;1259;73411;-63
2024/01/23 02:28:40;;;;;;;28.60;9.20;;;;;;;4.07;85.21;100458.59;105027;1261;139072;-64
2024/01/23 02:31:07;;;;;;;23.90;8.00;;;;;;;4.01;85.07;100466.30;105023;1254;61329;-63
2024/01/23 02:33:33;;;;;;;31.90;9.60;;;;;;;3.96;85.14;100466.21;104923;1254;74633;-64
2024/01/23 02:36:00;;;;;;;16.60;5.10;;;;;;;3.92;85.38;100462.73;105011;1256;138352;-64
2024/01/23 02:38:27;;;;;;;23.80;6.80;;;;;;;3.90;85.21;100464.20;105154;1260;72982;-64
2024/01/23 02:40:53;;;;;;;21.90;5.70;;;;;;;3.87;85.43;100460.77;105006;1254;138809;-64
2024/01/23 02:43:20;;;;;;;26.50;8.90;;;;;;;3.87;85.35;100461.14;104921;1259;61803;-58
2024/01/23 02:45:48;;;;;;;24.70;6.60;;;;;;;3.85;85.42;100461.54;104871;1255;73864;-63
2024/01/23 02:48:14;;;;;;;27.40;8.50;;;;;;;3.81;85.36;100455.97;105000;1256;139164;-64
2024/01/23 02:50:41;;;;;;;22.50;6.70;;;;;;;3.77;85.32;100450.41;105029;1259;73440;-63
2024/01/23 02:53:08;;;;;;;29.90;7.90;;;;;;;3.74;85.44;100452.15;104979;1258;139165;-64
2024/01/23 02:55:34;;;;;;;33.40;10.60;;;;;;;3.71;85.49;100453.27;105081;1254;61427;-63
2024/01/23 02:58:01;;;;;;;32.10;8.50;;;;;;;3.68;85.49;100449.63;105211;1259;74010;-63
2024/01/23 03:00:28;;;;;;;28.40;7.30;;;;;;;3.68;85.55;100449.13;104870;1256;138807;-64
2024/01/23 03:02:54;;;;;;;21.30;6.40;;;;;;;3.65;85.56;100446.19;105061;1256;71828;-59
2024/01/23 03:05:22;;;;;;;26.20;6.80;;;;;;;3.61;85.54;100444.98;109005;1255;138209;-59
2024/01/23 03:07:50;;;;;;;26.20;7.10;;;;;;;3.60;85.73;100457.07;109190;1254;61798;-59
2024/01/23 03:10:17;;;;;;;23.10;6.50;;;;;;;3.64;85.82;100462.25;109069;1254;138420;-59
2024/01/23 03:12:44;;;;;;;22.80;6.30;;;;;;;3.71;86.10;100464.00;109132;1254;66149;-59
2024/01/23 03:15:11;;;;;;;24.20;7.80;;;;;;;3.81;86.15;100466.56;109082;1254;72801;-58
2024/01/23 03:17:37;;;;;;;22.10;5.60;;;;;;;3.91;86.22;100468.05;108797;1254;139398;-58
2024/01/23 03:20:05;;;;;;;26.80;6.40;;;;;;;4.03;86.29;100466.05;108823;1254;59973;-59
2024/01/23 03:22:32;;;;;;;20.40;4.90;;;;;;;4.11;86.05;100468.48;109020;1254;138850;-58
2024/01/23 03:24:59;;;;;;;22.90;6.90;;;;;;;4.10;85.68;100477.29;109182;1254;64752;-59
2024/01/23 03:27:25;;;;;;;25.20;6.50;;;;;;;4.05;85.50;100486.80;108175;1256;73534;-65
2024/01/23 03:29:55;;;;;;;19.30;5.90;;;;;;;4.06;85.57;100486.36;104989;1259;138891;-65
2024/01/23 03:32:22;;;;;;;18.70;6.30;;;;;;;4.15;85.75;100486.02;105034;1256;61266;-65
2024/01/23 03:34:49;;;;;;;23.40;6.10;;;;;;;4.27;86.02;100487.98;105070;1254;140164;-64
2024/01/23 03:37:16;;;;;;;29.30;7.40;;;;;;;4.38;86.05;100490.20;105084;1254;65405;-59
2024/01/23 03:39:43;;;;;;;24.70;7.20;;;;;;;4.41;85.75;100484.29;105030;1257;72820;-59
2024/01/23 03:42:10;;;;;;;23.60;6.40;;;;;;;4.42;85.60;100478.43;104779;1258;143315;-59
2024/01/23 03:44:37;;;;;;;21.80;5.70;;;;;;;4.37;85.23;100478.35;104842;1256;61238;-59
2024/01/23 03:47:05;;;;;;;24.40;5.50;;;;;;;4.30;85.09;100487.95;104585;1257;149454;-59
2024/01/23 03:49:31;;;;;;;21.00;5.30;;;;;;;4.28;85.24;100495.52;105254;1256;66285;-65
2024/01/23 03:51:58;;;;;;;20.00;6.00;;;;;;;4.34;85.47;100507.56;104941;1259;71978;-59
2024/01/23 03:54:25;;;;;;;20.70;5.10;;;;;;;4.43;85.65;100507.83;104848;1257;139784;-58
2024/01/23 03:56:51;;;;;;;16.90;5.10;;;;;;;4.50;85.56;100501.54;104895;1259;61247;-58
2024/01/23 03:59:18;;;;;;;19.40;5.00;;;;;;;4.54;85.37;100501.16;104819;1256;139123;-57
2024/01/23 04:01:45;;;;;;;19.20;5.20;;;;;;;4.52;84.96;100505.77;104936;1258;66224;-64
2024/01/23 04:04:11;;;;;;;18.30;5.10;;;;;;;4.46;84.86;100500.83;104942;1256;139077;-65
2024/01/23 04:06:38;;;;;;;21.70;5.50;;;;;;;4.41;84.84;100507.04;104943;1256;61302;-65
2024/01/23 04:09:05;;;;;;;17.00;4.80;;;;;;;4.36;84.79;100505.38;104809;1256;61264;-66
2024/01/23 04:11:32;;;;;;;17.80;4.40;;;;;;;4.30;84.82;100510.34;104915;1257;139658;-66
2024/01/23 04:13:59;;;;;;;20.60;5.10;;;;;;;4.27;84.70;100513.70;104927;1257;65948;-59
2024/01/23 04:16:26;;;;;;;20.10;5.00;;;;;;;4.27;84.84;100523.95;104741;1260;138489;-65
2024/01/23 04:18:55;;;;;;;20.20;5.10;;;;;;;4.29;84.94;100529.95;104839;1256;61349;-58
2024/01/23 04:21:22;;;;;;;21.70;5.50;;;;;;;4.33;85.05;100533.05;105059;1260;61468;-64
2024/01/23 04:23:49;;;;;;;25.40;5.40;;;;;;;4.33;84.90;100536.52;104759;1256;138378;-65
2024/01/23 04:26:18;;;;;;;22.50;5.40;;;;;;;4.32;84.80;100544.47;104914;1255;65193;-59
2024/01/23 04:28:46;;;;;;;19.00;5.40;;;;;;;4.31;84.89;100555.21;104718;1256;138654;-65
2024/01/23 04:31:13;;;;;;;19.20;5.20;;;;;;;4.36;85.05;100557.69;105336;1256;61381;-59
2024/01/23 04:33:40;;;;;;;15.10;4.50;;;;;;;4.44;85.12;100556.66;104956;1259;61310;-65
2024/01/23 04:36:07;;;;;;;15.00;4.40;;;;;;;4.51;85.12;100559.45;104837;1256;139124;-65
2024/01/23 04:38:34;;;;;;;18.00;4.90;;;;;;;4.57;85.08;100564.95;104954;1259;66507;-65
2024/01/23 04:41:00;;;;;;;14.80;5.10;;;;;;;4.57;84.90;100568.94;105320;1260;138517;-59
2024/01/23 04:43:27;;;;;;;16.90;5.20;;;;;;;4.55;84.56;100573.52;104758;1258;61377;-59
2024/01/23 04:45:54;;;;;;;23.10;6.20;;;;;;;4.46;84.42;100566.67;104986;1256;61135;-59
2024/01/23 04:48:20;;;;;;;28.80;7.00;;;;;;;4.45;84.33;100574.45;104791;1259;138962;-58
2024/01/23 04:50:50;;;;;;;29.90;8.80;;;;;;;4.46;84.51;100588.41;104856;1259;67397;-58
2024/01/23 04:53:16;;;;;;;30.60;7.40;;;;;;;4.50;84.59;100587.73;104749;1256;138466;-59
2024/01/23 04:55:43;;;;;;;23.40;6.70;;;;;;;4.53;84.61;100584.88;104944;1259;61247;-64
2024/01/23 04:58:10;;;;;;;19.40;5.70;;;;;;;4.55;84.61;100586.40;104897;1256;61286;-58
2024/01/23 05:00:37;;;;;;;15.70;4.80;;;;;;;4.59;84.56;100584.81;104810;1257;75531;-59
2024/01/23 05:03:04;;;;;;;25.20;5.60;;;;;;;4.62;84.55;100594.38;104832;1259;65071;-59
2024/01/23 05:05:31;;;;;;;32.30;5.70;;;;;;;4.61;84.37;100597.63;104828;1254;138611;-65
2024/01/23 05:07:58;;;;;;;16.30;4.70;;;;;;;4.58;84.12;100599.91;104986;1259;61276;-59
2024/01/23 05:10:24;;;;;;;20.60;4.80;;;;;;;4.49;83.82;100600.89;104801;1257;138508;-58
2024/01/23 05:12:51;;;;;;;17.70;5.90;;;;;;;4.38;83.65;100599.29;104888;1257;73693;-59
2024/01/23 05:15:18;;;;;;;26.70;6.10;;;;;;;4.25;83.60;100605.30;104997;1254;65395;-65
2024/01/23 05:17:44;;;;;;;34.90;8.10;;;;;;;4.14;83.57;100612.92;104891;1259;138735;-65
2024/01/23 05:20:11;;;;;;;32.60;7.90;;;;;;;4.05;83.59;100610.95;104956;1259;61209;-66
2024/01/23 05:22:38;;;;;;;25.90;7.00;;;;;;;3.98;83.82;100615.42;104939;1254;138868;-65
2024/01/23 05:25:05;;;;;;;32.50;8.30;;;;;;;3.92;83.94;100619.30;104944;1259;75271;-66
2024/01/23 05:27:31;;;;;;;29.30;8.50;;;;;;;3.87;84.00;100627.93;104871;1254;65668;-65
2024/01/23 05:29:58;;;;;;;27.50;7.40;;;;;;;3.88;84.28;100632.34;104877;1255;138983;-65
2024/01/23 05:32:25;;;;;;;24.20;6.10;;;;;;;3.94;84.52;100630.02;104991;1259;61365;-65
2024/01/23 05:34:52;;;;;;;19.80;6.30;;;;;;;4.02;84.74;100631.45;105144;1256;138588;-65
2024/01/23 05:37:19;;;;;;;23.70;5.80;;;;;;;4.11;84.93;100628.41;104854;1256;74547;-66
2024/01/23 05:39:46;;;;;;;15.10;5.80;;;;;;;4.20;84.93;100623.80;104963;1259;66777;-65
2024/01/23 05:42:13;;;;;;;22.40;5.90;;;;;;;4.28;84.91;100628.70;104900;1257;138222;-66
2024/01/23 05:44:40;;;;;;;23.80;6.40;;;;;;;4.36;84.97;100636.38;104944;1256;61356;-59
2024/01/23 05:47:07;;;;;;;25.00;6.20;;;;;;;4.44;84.91;100639.73;104936;1256;139032;-59
2024/01/23 05:49:33;;;;;;;25.70;5.90;;;;;;;4.54;84.95;100639.51;104928;1259;75493;-65
2024/01/23 05:52:00;;;;;;;23.90;6.20;;;;;;;4.61;84.86;100633.27;104735;1257;67233;-65
2024/01/23 05:54:27;;;;;;;24.30;6.30;;;;;;;4.69;84.83;100631.86;104663;1256;138689;-66
2024/01/23 05:56:53;;;;;;;26.00;7.20;;;;;;;4.71;84.39;100632.65;105060;1254;60386;-66
2024/01/23 05:59:20;;;;;;;20.70;6.20;;;;;;;4.64;84.17;100635.33;104778;1257;138599;-65
2024/01/23 06:01:47;;;;;;;19.80;6.00;;;;;;;4.61;84.10;100636.52;105230;1259;75059;-65
2024/01/23 06:04:14;;;;;;;26.20;6.00;;;;;;;4.55;83.82;100632.93;104861;1258;139042;-66
2024/01/23 06:06:41;;;;;;;25.40;6.50;;;;;;;4.44;83.58;100622.19;104802;1254;71915;-65
2024/01/23 06:09:10;;;;;;;27.30;7.10;;;;;;;4.35;83.58;100625.73;104775;1260;61262;-67
2024/01/23 06:11:39;;;;;;;18.80;5.10;;;;;;;4.29;83.71;100629.11;104918;1254;138469;-64
2024/01/23 06:14:06;;;;;;;19.60;5.90;;;;;;;4.27;83.93;100630.09;105135;1254;75676;-65
2024/01/23 06:16:33;;;;;;;32.80;11.80;;;;;;;4.23;83.77;100634.52;104925;1259;139182;-62
2024/01/23 06:18:59;;;;;;;24.00;8.90;;;;;;;4.15;83.64;100645.42;104917;1258;72536;-65
2024/01/23 06:21:26;;;;;;;30.70;16.10;;;;;;;4.07;83.60;100656.52;105037;1256;61340;-65
2024/01/23 06:23:53;;;;;;;30.20;14.30;;;;;;;3.99;83.68;100661.00;104639;1256;138690;-65
2024/01/23 06:26:20;;;;;;;42.60;26.40;;;;;;;3.93;83.72;100660.86;104868;1256;75211;-65
2024/01/23 06:28:46;;;;;;;44.40;23.50;;;;;;;3.87;83.59;100661.60;104765;1257;139211;-65
2024/01/23 06:31:13;;;;;;;32.70;17.50;;;;;;;3.80;83.74;100666.65;104853;1256;73596;-65
2024/01/23 06:33:40;;;;;;;23.70;15.10;;;;;;;3.77;83.76;100675.66;105517;1256;61379;-66
2024/01/23 06:36:07;;;;;;;27.40;11.00;;;;;;;3.78;84.23;100677.96;104652;1257;138909;-66
2024/01/23 06:38:34;;;;;;;26.00;9.70;;;;;;;3.79;84.20;100677.20;104941;1256;73651;-65
2024/01/23 06:41:01;;;;;;;30.20;15.90;;;;;;;3.84;84.35;100683.00;105029;1257;139590;-66
2024/01/23 06:43:29;;;;;;;35.90;17.00;;;;;;;3.89;84.46;100682.04;105477;1256;73576;-65
2024/01/23 06:45:56;;;;;;;62.30;36.40;;;;;;;3.92;84.35;100681.81;105063;1259;61465;-65
2024/01/23 06:48:23;;;;;;;31.90;12.10;;;;;;;3.93;84.28;100689.86;104792;1259;138736;-65
2024/01/23 06:50:50;;;;;;;23.10;7.40;;;;;;;3.93;84.09;100686.18;104971;1257;74357;-59
2024/01/23 06:53:17;;;;;;;22.20;6.50;;;;;;;3.91;84.08;100680.22;104707;1260;138483;-58
2024/01/23 06:55:44;;;;;;;19.80;6.20;;;;;;;3.89;84.03;100680.95;104928;1258;73877;-59
2024/01/23 06:58:10;;;;;;;25.50;5.50;;;;;;;3.85;83.92;100687.36;104731;1259;138973;-62
2024/01/23 07:00:37;;;;;;;15.00;4.70;;;;;;;3.81;83.93;100693.79;104860;1259;61293;-64
2024/01/23 07:03:05;;;;;;;15.60;5.00;;;;;;;3.84;84.21;100697.54;105215;1256;74555;-65
2024/01/23 07:05:32;;;;;;;17.10;4.90;;;;;;;3.91;84.35;100697.73;105997;1258;138639;-64
2024/01/23 07:07:59;;;;;;;23.50;4.70;;;;;;;3.93;84.23;100686.20;105001;1254;72439;-65
2024/01/23 07:10:26;;;;;;;14.10;4.90;;;;;;;3.92;84.19;100682.34;104984;1258;138437;-65
2024/01/23 07:12:54;;;;;;;11.90;3.90;;;;;;;3.90;83.96;100677.74;106059;1258;61240;-65
2024/01/23 07:15:20;;;;;;;14.80;4.60;;;;;;;3.86;83.92;100687.43;105078;1256;73654;-63
2024/01/23 07:17:47;;;;;;;14.80;4.10;;;;;;;3.84;84.03;100691.16;104946;1261;139010;-65
2024/01/23 07:20:14;;;;;;;16.40;4.80;;;;;;;3.85;84.19;100700.02;105153;1258;72347;-65
2024/01/23 07:22:41;;;;;;;12.20;4.40;;;;;;;3.85;84.20;100704.73;105029;1254;138577;-65
2024/01/23 07:25:10;;;;;;;17.60;5.30;;;;;;;3.87;84.07;100716.79;105703;1260;61300;-65
2024/01/23 07:27:37;;;;;;;22.10;6.00;;;;;;;3.97;84.52;100732.94;104924;1255;74730;-64
2024/01/23 07:30:04;;;;;;;17.90;4.50;;;;;;;4.12;84.64;100731.62;104861;1259;138475;-65
2024/01/23 07:32:31;;;;;;;10.50;4.00;;;;;;;4.27;84.61;100730.63;106573;1258;73406;-65
2024/01/23 07:34:58;;;;;;;14.10;5.00;;;;;;;4.36;84.44;100738.39;104944;1254;138763;-65
2024/01/23 07:37:24;;;;;;;17.10;5.00;;;;;;;4.43;84.32;100739.77;105105;1258;61264;-65
2024/01/23 07:39:51;;;;;;;16.90;5.00;;;;;;;4.51;84.11;100737.21;105033;1254;74933;-65
2024/01/23 07:42:18;;;;;;;18.80;4.60;;;;;;;4.51;83.87;100735.80;104883;1258;139811;-64
2024/01/23 07:44:46;;;;;;;12.20;4.50;;;;;;;4.48;83.64;100740.38;104979;1256;73478;-65
2024/01/23 07:47:13;;;;;;;15.20;4.80;;;;;;;4.45;83.50;100744.40;104724;1259;140017;-65
2024/01/23 07:49:40;;;;;;;24.30;5.20;;;;;;;4.43;83.52;100751.05;104974;1256;61319;-65
2024/01/23 07:52:07;;;;;;;15.20;5.00;;;;;;;4.41;83.36;100750.95;104842;1260;76873;-65
2024/01/23 07:54:33;;;;;;;16.50;4.00;;;;;;;4.38;83.45;100754.63;104837;1254;139992;-65
2024/01/23 07:57:00;;;;;;;18.50;4.90;;;;;;;4.36;83.40;100754.20;105418;1258;73224;-65
2024/01/23 07:59:27;;;;;;;15.60;4.30;;;;;;;4.37;83.47;100751.29;105106;1255;140024;-65
2024/01/23 08:01:54;;;;;;;17.00;5.10;;;;;;;4.40;83.52;100754.91;105143;1257;61922;-65
2024/01/23 08:04:20;;;;;;;14.00;4.90;;;;;;;4.47;83.72;100756.11;104889;1256;139998;-64
2024/01/23 08:06:47;;;;;;;17.80;5.30;;;;;;;4.52;83.63;100762.45;105066;1254;64502;-65
2024/01/23 08:09:14;;;;;;;12.80;4.50;;;;;;;4.55;83.53;100760.88;105131;1254;71892;-65
2024/01/23 08:11:41;;;;;;;22.70;5.20;;;;;;;4.61;83.59;100756.14;104873;1254;139872;-65
2024/01/23 08:14:07;;;;;;;17.90;5.10;;;;;;;4.72;83.80;100763.96;105770;1254;61353;-64
2024/01/23 08:16:34;;;;;;;14.10;5.20;;;;;;;4.87;83.84;100774.27;104762;1255;138204;-61
2024/01/23 08:19:02;;;;;;;20.00;5.20;;;;;;;5.00;83.82;100767.19;108938;1256;67040;-60
2024/01/23 08:21:29;;;;;;;20.10;5.40;;;;;;;5.10;83.76;100763.48;108494;1255;71135;-64
2024/01/23 08:23:55;;;;;;;14.80;4.70;;;;;;;5.15;83.66;100764.62;104768;1260;139818;-64
2024/01/23 08:26:22;;;;;;;17.50;4.80;;;;;;;5.17;83.55;100775.84;104972;1257;61356;-64
2024/01/23 08:28:49;;;;;;;17.40;4.10;;;;;;;5.19;83.56;100782.36;104875;1254;139218;-64
2024/01/23 08:31:16;;;;;;;12.00;4.30;;;;;;;5.22;83.49;100789.80;105072;1257;67178;-64
2024/01/23 08:33:43;;;;;;;14.60;4.50;;;;;;;5.25;83.39;100783.88;105884;1254;73668;-64
2024/01/23 08:36:10;;;;;;;19.80;5.10;;;;;;;5.25;83.22;100776.88;104822;1257;138525;-65
2024/01/23 08:38:36;;;;;;;13.10;5.10;;;;;;;5.16;82.86;100775.45;105003;1257;61134;-64
2024/01/23 08:41:03;;;;;;;17.80;6.00;;;;;;;5.08;82.82;100776.61;105046;1259;138476;-64
2024/01/23 08:43:30;;;;;;;14.50;5.30;;;;;;;5.02;82.80;100778.08;105214;1259;66668;-66
2024/01/23 08:45:57;;;;;;;15.30;7.10;;;;;;;4.99;82.92;100772.18;104969;1259;73921;-66
2024/01/23 08:48:25;;;;;;;11.40;4.80;;;;;;;4.98;82.96;100773.55;105315;1254;138693;-66
2024/01/23 08:50:51;;;;;;;13.80;5.60;;;;;;;4.98;83.11;100775.29;106550;1256;61255;-65
2024/01/23 08:53:18;;;;;;;15.80;5.30;;;;;;;5.00;83.12;100773.48;105011;1256;139441;-65
2024/01/23 08:55:46;;;;;;;14.40;5.20;;;;;;;5.02;83.14;100774.61;105014;1256;67016;-65
2024/01/23 08:58:17;;;;;;;17.40;7.10;;;;;;;5.04;83.16;100779.94;104965;1257;139421;-63
2024/01/23 09:00:44;;;;;;;17.90;7.40;;;;;;;5.10;83.30;100779.13;105104;1257;61273;-65
2024/01/23 09:03:11;;;;;;;23.80;8.70;;;;;;;5.18;83.37;100779.87;104948;1259;61209;-64
2024/01/23 09:05:38;;;;;;;24.40;9.20;;;;;;;5.24;83.22;100781.91;104852;1259;138501;-64
2024/01/23 09:08:05;;;;;;;20.50;9.70;;;;;;;5.25;83.07;100770.82;105009;1257;65146;-64
2024/01/23 09:10:32;;;;;;;18.70;7.00;;;;;;;5.24;82.90;100776.52;105689;1259;137911;-64
2024/01/23 09:12:59;;;;;;;27.50;11.10;;;;;;;5.24;82.81;100778.27;104946;1259;61330;-64
2024/01/23 09:15:29;;;;;;;19.50;7.00;;;;;;;5.29;82.96;100773.41;105751;1254;61180;-64
2024/01/23 09:17:56;;;;;;;19.20;7.50;;;;;;;5.33;82.93;100771.52;104695;1257;137669;-64
2024/01/23 09:20:22;;;;;;;23.40;7.40;;;;;;;5.37;82.83;100781.99;105003;1260;65698;-65
2024/01/23 09:22:50;;;;;;;14.90;6.70;;;;;;;5.41;82.74;100787.23;104851;1260;138665;-65
2024/01/23 09:25:18;;;;;;;20.00;6.50;;;;;;;5.50;82.95;100792.86;104742;1260;199153;-71
2024/01/23 09:27:45;;;;;;;16.80;5.80;;;;;;;5.68;83.04;100795.04;109055;1257;59791;-72
2024/01/23 09:30:12;;;;;;;20.40;5.50;;;;;;;5.81;82.85;100787.98;108784;1254;138504;-71
2024/01/23 09:32:39;;;;;;;21.50;6.30;;;;;;;5.87;82.43;100785.63;109079;1254;66347;-71
2024/01/23 09:35:06;;;;;;;16.90;5.50;;;;;;;5.87;82.15;100780.05;108957;1256;138544;-71
2024/01/23 09:37:33;;;;;;;16.60;4.90;;;;;;;5.83;81.86;100776.24;109103;1256;60423;-70
2024/01/23 09:39:59;;;;;;;13.60;4.50;;;;;;;5.80;81.69;100772.29;108883;1254;59266;-71
2024/01/23 09:42:26;;;;;;;16.50;4.80;;;;;;;5.81;81.69;100767.80;108984;1254;138702;-71
2024/01/23 09:44:53;;;;;;;18.10;4.70;;;;;;;5.83;81.61;100768.91;108801;1254;66553;-71
2024/01/23 09:47:20;;;;;;;15.10;5.30;;;;;;;5.84;81.51;100778.20;108932;1254;137408;-70
2024/01/23 09:49:47;;;;;;;20.30;5.00;;;;;;;5.87;81.47;100787.54;109064;1254;60345;-71
2024/01/23 09:52:14;;;;;;;18.60;5.10;;;;;;;6.02;81.78;100788.24;108989;1256;138257;-72
2024/01/23 09:54:40;;;;;;;14.40;3.90;;;;;;;6.29;82.01;100782.77;108877;1254;75633;-71
2024/01/23 09:57:07;;;;;;;15.00;4.90;;;;;;;6.50;81.78;100784.57;109088;1257;66088;-71
2024/01/23 09:59:34;;;;;;;19.20;4.90;;;;;;;6.70;81.60;100787.48;108726;1256;138490;-71
2024/01/23 10:02:00;;;;;;;14.80;4.20;;;;;;;6.81;81.06;100780.93;108807;1256;59308;-72
2024/01/23 10:04:27;;;;;;;17.20;4.90;;;;;;;6.89;80.89;100783.33;108748;1254;139115;-71
2024/01/23 10:06:54;;;;;;;18.80;5.00;;;;;;;7.00;80.69;100784.13;109055;1256;73812;-71
2024/01/23 10:09:20;;;;;;;15.20;4.30;;;;;;;7.12;80.53;100787.91;109106;1255;65920;-71
2024/01/23 10:11:47;;;;;;;16.70;4.10;;;;;;;7.24;80.34;100793.80;108969;1255;138542;-71
2024/01/23 10:14:15;;;;;;;12.80;3.80;;;;;;;7.30;79.93;100787.58;109047;1254;59351;-71
2024/01/23 10:16:42;;;;;;;13.70;4.30;;;;;;;7.34;79.62;100788.80;108865;1256;139727;-69
2024/01/23 10:19:10;;;;;;;21.10;4.60;;;;;;;7.36;79.32;100792.04;109036;1255;73694;-71
2024/01/23 10:21:37;;;;;;;16.00;4.90;;;;;;;7.42;79.15;100792.39;109043;1257;66306;-70
2024/01/23 10:24:05;;;;;;;16.60;5.20;;;;;;;7.47;78.97;100789.98;108945;1254;138484;-71
2024/01/23 10:26:32;;;;;;;17.20;5.20;;;;;;;7.53;78.83;100782.88;109065;1254;60382;-71
2024/01/23 10:29:00;;;;;;;19.20;5.90;;;;;;;7.59;78.71;100786.23;108805;1260;138409;-70
2024/01/23 10:31:27;;;;;;;16.50;5.20;;;;;;;7.69;78.60;100792.02;109112;1256;74147;-70
2024/01/23 10:33:54;;;;;;;15.50;4.60;;;;;;;7.69;78.20;100792.21;107727;1257;68668;-70
2024/01/23 10:36:20;;;;;;;17.70;5.10;;;;;;;7.63;77.99;100784.13;104596;1262;137782;-71
2024/01/23 10:38:50;;;;;;;12.60;4.40;;;;;;;7.56;77.79;100781.92;107757;1255;61206;-71
2024/01/23 10:41:17;;;;;;;16.80;5.30;;;;;;;7.54;77.80;100782.56;109034;1257;137876;-71
2024/01/23 10:43:46;;;;;;;15.40;4.60;;;;;;;7.55;77.89;100782.61;108996;1255;75049;-71
2024/01/23 10:46:13;;;;;;;18.70;4.60;;;;;;;7.57;77.78;100780.05;108863;1256;139028;-71
2024/01/23 10:48:40;;;;;;;15.00;5.00;;;;;;;7.56;77.59;100781.08;109045;1256;70783;-72
2024/01/23 10:51:15;;;;;;;13.80;4.10;;;;;;;7.61;77.68;100783.88;109148;1255;59208;-71
2024/01/23 10:53:59;;;;;;;14.10;4.10;;;;;;;7.62;77.47;100779.02;108802;1255;138871;-72
2024/01/23 10:56:32;;;;;;;20.90;4.40;;;;;;;7.66;77.38;100774.44;108889;1257;74101;-72
2024/01/23 10:59:03;;;;;;;13.80;3.60;;;;;;;7.72;77.35;100772.58;108730;1256;138360;-71
2024/01/23 11:01:33;;;;;;;14.20;3.60;;;;;;;7.74;77.06;100771.42;109003;1256;72818;-71
2024/01/23 11:04:02;;;;;;;16.50;5.10;;;;;;;7.77;76.90;100781.66;108893;1256;59247;-71
2024/01/23 11:06:31;;;;;;;15.70;4.20;;;;;;;7.72;76.63;100783.92;108967;1255;137394;-71
2024/01/23 11:09:19;;;;;;;12.40;4.10;;;;;;;7.64;76.45;100787.30;108684;1256;72562;-70
2024/01/23 11:12:10;;;;;;;19.60;4.30;;;;;;;7.59;76.43;100783.27;108656;1256;138384;-71